sensor_id;sensor_type;location;lat;lon;timestamp;P1;durP1;ratioP1;P2;durP2;ratioP2
10987;SDS011;5547;42.672;23.230;2023-04-24T00:02:33;13.57;;;10.13;;
10987;SDS011;5547;42.672;23.230;2023-04-24T00:05:34;12.82;;;10.18;;
10987;SDS011;5547;42.672;23.230;2023-04-24T00:08:35;11.33;;;10.10;;
10987;SDS011;5547;42.672;23.230;2023-04-24T00:11:36;13.43;;;9.70;;
10987;SDS011;5547;42.672;23.230;2023-04-24T00:14:36;11.52;;;10.07;;
10987;SDS011;5547;42.672;23.230;2023-04-24T00:17:37;12.10;;;10.57;;
10987;SDS011;5547;42.672;23.230;2023-04-24T00:20:37;11.47;;;9.97;;
10987;SDS011;5547;42.672;23.230;2023-04-24T00:23:38;12.37;;;9.87;;
10987;SDS011;5547;42.672;23.230;2023-04-24T00:26:38;13.07;;;10.47;;
10987;SDS011;5547;42.672;23.230;2023-04-24T00:29:39;12.77;;;9.80;;
10987;SDS011;5547;42.672;23.230;2023-04-24T00:32:39;12.03;;;9.87;;
10987;SDS011;5547;42.672;23.230;2023-04-24T00:35:40;12.37;;;9.73;;
10987;SDS011;5547;42.672;23.230;2023-04-24T00:38:40;12.10;;;9.33;;
10987;SDS011;5547;42.672;23.230;2023-04-24T00:41:41;11.23;;;9.50;;
10987;SDS011;5547;42.672;23.230;2023-04-24T00:44:42;11.32;;;9.43;;
10987;SDS011;5547;42.672;23.230;2023-04-24T00:47:42;13.05;;;9.57;;
10987;SDS011;5547;42.672;23.230;2023-04-24T00:50:43;12.13;;;9.23;;
10987;SDS011;5547;42.672;23.230;2023-04-24T00:53:44;10.13;;;8.85;;
10987;SDS011;5547;42.672;23.230;2023-04-24T00:56:44;11.80;;;9.47;;
10987;SDS011;5547;42.672;23.230;2023-04-24T00:59:45;13.60;;;10.90;;
10987;SDS011;5547;42.672;23.230;2023-04-24T01:02:46;14.77;;;11.30;;
10987;SDS011;5547;42.672;23.230;2023-04-24T01:05:47;13.07;;;10.27;;
10987;SDS011;5547;42.672;23.230;2023-04-24T01:08:48;14.35;;;11.73;;
10987;SDS011;5547;42.672;23.230;2023-04-24T01:11:49;15.73;;;12.52;;
10987;SDS011;5547;42.672;23.230;2023-04-24T01:14:50;17.27;;;12.57;;
10987;SDS011;5547;42.672;23.230;2023-04-24T01:17:51;13.87;;;11.90;;
10987;SDS011;5547;42.672;23.230;2023-04-24T01:20:52;14.25;;;12.75;;
10987;SDS011;5547;42.672;23.230;2023-04-24T01:23:54;13.35;;;10.75;;
10987;SDS011;5547;42.672;23.230;2023-04-24T01:26:55;14.03;;;12.03;;
10987;SDS011;5547;42.672;23.230;2023-04-24T01:29:56;16.52;;;13.30;;
10987;SDS011;5547;42.672;23.230;2023-04-24T01:32:57;13.57;;;10.60;;
10987;SDS011;5547;42.672;23.230;2023-04-24T01:35:59;14.02;;;12.43;;
10987;SDS011;5547;42.672;23.230;2023-04-24T01:38:59;14.07;;;12.07;;
10987;SDS011;5547;42.672;23.230;2023-04-24T01:42:00;17.92;;;14.50;;
10987;SDS011;5547;42.672;23.230;2023-04-24T01:45:02;16.10;;;13.40;;
10987;SDS011;5547;42.672;23.230;2023-04-24T01:48:05;16.45;;;13.43;;
10987;SDS011;5547;42.672;23.230;2023-04-24T01:51:05;17.20;;;13.40;;
10987;SDS011;5547;42.672;23.230;2023-04-24T01:54:06;14.20;;;12.35;;
10987;SDS011;5547;42.672;23.230;2023-04-24T01:57:06;15.35;;;13.10;;
10987;SDS011;5547;42.672;23.230;2023-04-24T02:00:07;13.93;;;12.18;;
10987;SDS011;5547;42.672;23.230;2023-04-24T02:03:08;13.17;;;11.87;;
10987;SDS011;5547;42.672;23.230;2023-04-24T02:06:09;18.50;;;13.02;;
10987;SDS011;5547;42.672;23.230;2023-04-24T02:09:09;16.03;;;12.47;;
10987;SDS011;5547;42.672;23.230;2023-04-24T02:12:10;13.95;;;11.50;;
10987;SDS011;5547;42.672;23.230;2023-04-24T02:15:11;13.47;;;11.87;;
10987;SDS011;5547;42.672;23.230;2023-04-24T02:18:12;16.25;;;12.27;;
10987;SDS011;5547;42.672;23.230;2023-04-24T02:21:12;15.83;;;11.93;;
10987;SDS011;5547;42.672;23.230;2023-04-24T02:24:13;15.40;;;11.97;;
10987;SDS011;5547;42.672;23.230;2023-04-24T02:27:13;14.83;;;12.10;;
10987;SDS011;5547;42.672;23.230;2023-04-24T02:30:14;14.93;;;12.60;;
10987;SDS011;5547;42.672;23.230;2023-04-24T02:33:14;15.37;;;12.70;;
10987;SDS011;5547;42.672;23.230;2023-04-24T02:36:15;15.88;;;13.45;;
10987;SDS011;5547;42.672;23.230;2023-04-24T02:39:15;15.13;;;13.52;;
10987;SDS011;5547;42.672;23.230;2023-04-24T02:42:18;15.45;;;13.75;;
10987;SDS011;5547;42.672;23.230;2023-04-24T02:45:19;17.50;;;14.60;;
10987;SDS011;5547;42.672;23.230;2023-04-24T02:48:19;14.97;;;13.17;;
10987;SDS011;5547;42.672;23.230;2023-04-24T02:51:20;14.25;;;12.50;;
10987;SDS011;5547;42.672;23.230;2023-04-24T02:54:21;17.87;;;13.37;;
10987;SDS011;5547;42.672;23.230;2023-04-24T02:57:21;16.00;;;12.40;;
10987;SDS011;5547;42.672;23.230;2023-04-24T03:00:22;13.80;;;11.63;;
10987;SDS011;5547;42.672;23.230;2023-04-24T03:03:22;14.23;;;12.70;;
10987;SDS011;5547;42.672;23.230;2023-04-24T03:06:23;12.60;;;10.43;;
10987;SDS011;5547;42.672;23.230;2023-04-24T03:09:24;15.73;;;11.83;;
10987;SDS011;5547;42.672;23.230;2023-04-24T03:12:25;14.18;;;11.18;;
10987;SDS011;5547;42.672;23.230;2023-04-24T03:15:26;12.10;;;10.83;;
10987;SDS011;5547;42.672;23.230;2023-04-24T03:18:26;13.50;;;11.40;;
10987;SDS011;5547;42.672;23.230;2023-04-24T03:21:27;14.93;;;12.10;;
10987;SDS011;5547;42.672;23.230;2023-04-24T03:24:27;14.70;;;12.47;;
10987;SDS011;5547;42.672;23.230;2023-04-24T03:27:28;14.48;;;11.93;;
10987;SDS011;5547;42.672;23.230;2023-04-24T03:30:28;13.50;;;11.67;;
10987;SDS011;5547;42.672;23.230;2023-04-24T03:33:29;12.87;;;11.37;;
10987;SDS011;5547;42.672;23.230;2023-04-24T03:36:30;14.85;;;12.68;;
10987;SDS011;5547;42.672;23.230;2023-04-24T03:39:31;14.18;;;11.93;;
10987;SDS011;5547;42.672;23.230;2023-04-24T03:42:31;17.43;;;13.33;;
10987;SDS011;5547;42.672;23.230;2023-04-24T03:45:31;35.97;;;24.27;;
10987;SDS011;5547;42.672;23.230;2023-04-24T03:48:32;32.87;;;20.83;;
10987;SDS011;5547;42.672;23.230;2023-04-24T03:51:32;25.00;;;17.67;;
10987;SDS011;5547;42.672;23.230;2023-04-24T03:54:32;21.63;;;16.83;;
10987;SDS011;5547;42.672;23.230;2023-04-24T03:57:33;32.28;;;29.08;;
10987;SDS011;5547;42.672;23.230;2023-04-24T04:00:33;18.63;;;16.13;;
10987;SDS011;5547;42.672;23.230;2023-04-24T04:03:34;14.30;;;12.87;;
10987;SDS011;5547;42.672;23.230;2023-04-24T04:06:34;12.85;;;10.77;;
10987;SDS011;5547;42.672;23.230;2023-04-24T04:09:36;12.00;;;9.57;;
10987;SDS011;5547;42.672;23.230;2023-04-24T04:12:36;11.53;;;10.27;;
10987;SDS011;5547;42.672;23.230;2023-04-24T04:15:37;10.80;;;9.33;;
10987;SDS011;5547;42.672;23.230;2023-04-24T04:18:37;10.67;;;9.57;;
10987;SDS011;5547;42.672;23.230;2023-04-24T04:21:37;13.00;;;10.27;;
10987;SDS011;5547;42.672;23.230;2023-04-24T04:24:38;13.77;;;11.70;;
10987;SDS011;5547;42.672;23.230;2023-04-24T04:27:40;19.07;;;16.57;;
10987;SDS011;5547;42.672;23.230;2023-04-24T04:30:41;10.98;;;9.45;;
10987;SDS011;5547;42.672;23.230;2023-04-24T04:33:42;10.35;;;9.23;;
10987;SDS011;5547;42.672;23.230;2023-04-24T04:36:43;10.43;;;9.07;;
10987;SDS011;5547;42.672;23.230;2023-04-24T04:39:44;12.02;;;9.45;;
10987;SDS011;5547;42.672;23.230;2023-04-24T04:42:44;10.80;;;8.60;;
10987;SDS011;5547;42.672;23.230;2023-04-24T04:45:45;11.95;;;9.60;;
10987;SDS011;5547;42.672;23.230;2023-04-24T04:48:48;10.40;;;9.23;;
10987;SDS011;5547;42.672;23.230;2023-04-24T04:51:48;10.90;;;8.88;;
10987;SDS011;5547;42.672;23.230;2023-04-24T04:54:50;10.70;;;8.40;;
10987;SDS011;5547;42.672;23.230;2023-04-24T04:57:51;11.32;;;8.73;;
10987;SDS011;5547;42.672;23.230;2023-04-24T05:00:52;10.60;;;8.70;;
10987;SDS011;5547;42.672;23.230;2023-04-24T05:03:53;11.02;;;8.45;;
10987;SDS011;5547;42.672;23.230;2023-04-24T05:06:53;11.10;;;9.17;;
10987;SDS011;5547;42.672;23.230;2023-04-24T05:09:53;10.13;;;8.10;;
10987;SDS011;5547;42.672;23.230;2023-04-24T05:12:54;11.47;;;8.70;;
10987;SDS011;5547;42.672;23.230;2023-04-24T05:15:54;10.83;;;8.73;;
10987;SDS011;5547;42.672;23.230;2023-04-24T05:18:55;10.30;;;7.88;;
10987;SDS011;5547;42.672;23.230;2023-04-24T05:21:55;10.40;;;8.65;;
10987;SDS011;5547;42.672;23.230;2023-04-24T05:24:55;10.63;;;9.03;;
10987;SDS011;5547;42.672;23.230;2023-04-24T05:27:56;13.17;;;8.93;;
10987;SDS011;5547;42.672;23.230;2023-04-24T05:30:57;14.57;;;9.23;;
10987;SDS011;5547;42.672;23.230;2023-04-24T05:33:59;9.93;;;8.77;;
10987;SDS011;5547;42.672;23.230;2023-04-24T05:36:59;10.83;;;8.10;;
10987;SDS011;5547;42.672;23.230;2023-04-24T05:40:00;14.18;;;9.13;;
10987;SDS011;5547;42.672;23.230;2023-04-24T05:43:00;11.53;;;8.90;;
10987;SDS011;5547;42.672;23.230;2023-04-24T05:46:00;10.80;;;9.30;;
10987;SDS011;5547;42.672;23.230;2023-04-24T05:49:01;10.67;;;8.50;;
10987;SDS011;5547;42.672;23.230;2023-04-24T05:52:02;12.45;;;9.15;;
10987;SDS011;5547;42.672;23.230;2023-04-24T05:55:04;12.80;;;10.30;;
10987;SDS011;5547;42.672;23.230;2023-04-24T05:58:05;13.90;;;10.50;;
10987;SDS011;5547;42.672;23.230;2023-04-24T06:01:06;13.40;;;10.65;;
10987;SDS011;5547;42.672;23.230;2023-04-24T06:04:07;15.35;;;10.15;;
10987;SDS011;5547;42.672;23.230;2023-04-24T06:07:07;12.40;;;9.15;;
10987;SDS011;5547;42.672;23.230;2023-04-24T06:10:08;12.60;;;9.37;;
10987;SDS011;5547;42.672;23.230;2023-04-24T06:13:08;11.73;;;8.70;;
10987;SDS011;5547;42.672;23.230;2023-04-24T06:16:09;10.63;;;8.48;;
10987;SDS011;5547;42.672;23.230;2023-04-24T06:19:10;10.43;;;8.02;;
10987;SDS011;5547;42.672;23.230;2023-04-24T06:22:11;10.47;;;7.90;;
10987;SDS011;5547;42.672;23.230;2023-04-24T06:25:12;10.48;;;8.43;;
10987;SDS011;5547;42.672;23.230;2023-04-24T06:28:12;10.63;;;8.53;;
10987;SDS011;5547;42.672;23.230;2023-04-24T06:31:13;11.60;;;9.03;;
10987;SDS011;5547;42.672;23.230;2023-04-24T06:34:13;13.50;;;9.30;;
10987;SDS011;5547;42.672;23.230;2023-04-24T06:37:14;14.67;;;10.63;;
10987;SDS011;5547;42.672;23.230;2023-04-24T06:40:15;12.57;;;9.30;;
10987;SDS011;5547;42.672;23.230;2023-04-24T06:43:18;12.40;;;8.75;;
10987;SDS011;5547;42.672;23.230;2023-04-24T06:46:19;12.35;;;9.77;;
10987;SDS011;5547;42.672;23.230;2023-04-24T06:49:22;15.20;;;11.50;;
10987;SDS011;5547;42.672;23.230;2023-04-24T06:52:22;14.57;;;12.57;;
10987;SDS011;5547;42.672;23.230;2023-04-24T06:55:22;16.83;;;12.93;;
10987;SDS011;5547;42.672;23.230;2023-04-24T06:58:24;14.00;;;10.47;;
10987;SDS011;5547;42.672;23.230;2023-04-24T07:01:25;11.17;;;9.60;;
10987;SDS011;5547;42.672;23.230;2023-04-24T07:04:25;13.00;;;8.90;;
10987;SDS011;5547;42.672;23.230;2023-04-24T07:07:26;12.93;;;9.32;;
10987;SDS011;5547;42.672;23.230;2023-04-24T07:10:27;10.65;;;8.77;;
10987;SDS011;5547;42.672;23.230;2023-04-24T07:13:28;11.93;;;9.20;;
10987;SDS011;5547;42.672;23.230;2023-04-24T07:16:29;10.50;;;8.70;;
10987;SDS011;5547;42.672;23.230;2023-04-24T07:19:30;14.10;;;9.77;;
10987;SDS011;5547;42.672;23.230;2023-04-24T07:22:30;10.00;;;8.70;;
10987;SDS011;5547;42.672;23.230;2023-04-24T07:25:31;9.48;;;8.57;;
10987;SDS011;5547;42.672;23.230;2023-04-24T07:28:31;10.68;;;8.55;;
10987;SDS011;5547;42.672;23.230;2023-04-24T07:31:32;11.40;;;8.63;;
10987;SDS011;5547;42.672;23.230;2023-04-24T07:34:32;9.77;;;8.47;;
10987;SDS011;5547;42.672;23.230;2023-04-24T07:37:32;10.43;;;7.40;;
10987;SDS011;5547;42.672;23.230;2023-04-24T07:40:33;7.93;;;7.10;;
10987;SDS011;5547;42.672;23.230;2023-04-24T07:43:33;8.70;;;7.27;;
10987;SDS011;5547;42.672;23.230;2023-04-24T07:46:34;11.48;;;7.68;;
10987;SDS011;5547;42.672;23.230;2023-04-24T07:49:34;11.40;;;8.07;;
10987;SDS011;5547;42.672;23.230;2023-04-24T07:52:35;11.07;;;8.80;;
10987;SDS011;5547;42.672;23.230;2023-04-24T07:55:36;10.50;;;8.88;;
10987;SDS011;5547;42.672;23.230;2023-04-24T07:58:36;11.97;;;8.17;;
10987;SDS011;5547;42.672;23.230;2023-04-24T08:01:36;11.00;;;8.23;;
10987;SDS011;5547;42.672;23.230;2023-04-24T08:04:38;10.82;;;8.45;;
10987;SDS011;5547;42.672;23.230;2023-04-24T08:07:38;10.80;;;8.63;;
10987;SDS011;5547;42.672;23.230;2023-04-24T08:10:39;10.70;;;8.30;;
10987;SDS011;5547;42.672;23.230;2023-04-24T08:13:39;9.27;;;7.80;;
10987;SDS011;5547;42.672;23.230;2023-04-24T08:16:40;10.13;;;7.72;;
10987;SDS011;5547;42.672;23.230;2023-04-24T08:19:40;10.10;;;8.02;;
10987;SDS011;5547;42.672;23.230;2023-04-24T08:22:47;9.90;;;8.00;;
10987;SDS011;5547;42.672;23.230;2023-04-24T08:25:48;10.50;;;8.75;;
10987;SDS011;5547;42.672;23.230;2023-04-24T08:28:49;11.27;;;8.40;;
10987;SDS011;5547;42.672;23.230;2023-04-24T08:31:49;10.03;;;8.30;;
10987;SDS011;5547;42.672;23.230;2023-04-24T08:34:50;9.63;;;8.50;;
10987;SDS011;5547;42.672;23.230;2023-04-24T08:37:52;8.77;;;7.85;;
10987;SDS011;5547;42.672;23.230;2023-04-24T08:40:53;11.23;;;8.82;;
10987;SDS011;5547;42.672;23.230;2023-04-24T08:43:54;13.20;;;8.90;;
10987;SDS011;5547;42.672;23.230;2023-04-24T08:46:58;10.65;;;7.97;;
10987;SDS011;5547;42.672;23.230;2023-04-24T08:49:59;11.82;;;7.82;;
10987;SDS011;5547;42.672;23.230;2023-04-24T08:53:02;10.13;;;8.00;;
10987;SDS011;5547;42.672;23.230;2023-04-24T08:56:03;9.93;;;8.45;;
10987;SDS011;5547;42.672;23.230;2023-04-24T08:59:05;11.33;;;8.00;;
10987;SDS011;5547;42.672;23.230;2023-04-24T09:02:06;9.90;;;7.88;;
10987;SDS011;5547;42.672;23.230;2023-04-24T09:05:11;10.48;;;7.50;;
10987;SDS011;5547;42.672;23.230;2023-04-24T09:08:13;9.18;;;7.40;;
10987;SDS011;5547;42.672;23.230;2023-04-24T09:11:14;8.82;;;7.15;;
10987;SDS011;5547;42.672;23.230;2023-04-24T09:14:15;10.67;;;7.20;;
10987;SDS011;5547;42.672;23.230;2023-04-24T09:17:16;8.65;;;7.05;;
10987;SDS011;5547;42.672;23.230;2023-04-24T09:20:17;10.90;;;7.60;;
10987;SDS011;5547;42.672;23.230;2023-04-24T09:23:17;14.75;;;7.75;;
10987;SDS011;5547;42.672;23.230;2023-04-24T09:26:18;10.77;;;6.87;;
10987;SDS011;5547;42.672;23.230;2023-04-24T09:29:21;9.03;;;6.97;;
10987;SDS011;5547;42.672;23.230;2023-04-24T09:32:22;8.13;;;6.83;;
10987;SDS011;5547;42.672;23.230;2023-04-24T09:35:25;11.17;;;7.27;;
10987;SDS011;5547;42.672;23.230;2023-04-24T09:38:32;8.20;;;6.70;;
10987;SDS011;5547;42.672;23.230;2023-04-24T09:41:35;9.10;;;6.75;;
10987;SDS011;5547;42.672;23.230;2023-04-24T09:44:43;9.95;;;6.60;;
10987;SDS011;5547;42.672;23.230;2023-04-24T09:47:44;7.10;;;6.40;;
10987;SDS011;5547;42.672;23.230;2023-04-24T09:50:47;6.28;;;4.22;;
10987;SDS011;5547;42.672;23.230;2023-04-24T09:53:48;4.63;;;4.13;;
10987;SDS011;5547;42.672;23.230;2023-04-24T09:56:52;6.93;;;4.18;;
10987;SDS011;5547;42.672;23.230;2023-04-24T09:59:54;5.47;;;4.05;;
10987;SDS011;5547;42.672;23.230;2023-04-24T10:02:58;5.90;;;4.00;;
10987;SDS011;5547;42.672;23.230;2023-04-24T10:06:00;5.07;;;4.20;;
10987;SDS011;5547;42.672;23.230;2023-04-24T10:09:02;5.70;;;3.40;;
10987;SDS011;5547;42.672;23.230;2023-04-24T10:12:03;4.10;;;3.70;;
10987;SDS011;5547;42.672;23.230;2023-04-24T10:15:04;5.40;;;3.63;;
10987;SDS011;5547;42.672;23.230;2023-04-24T10:18:05;5.38;;;3.88;;
10987;SDS011;5547;42.672;23.230;2023-04-24T10:21:06;6.50;;;4.00;;
10987;SDS011;5547;42.672;23.230;2023-04-24T10:24:07;5.07;;;3.83;;
10987;SDS011;5547;42.672;23.230;2023-04-24T10:27:08;4.00;;;3.60;;
10987;SDS011;5547;42.672;23.230;2023-04-24T10:30:10;5.38;;;4.10;;
10987;SDS011;5547;42.672;23.230;2023-04-24T10:33:12;3.93;;;3.53;;
10987;SDS011;5547;42.672;23.230;2023-04-24T10:36:13;4.80;;;3.83;;
10987;SDS011;5547;42.672;23.230;2023-04-24T10:39:16;3.97;;;3.42;;
10987;SDS011;5547;42.672;23.230;2023-04-24T10:42:17;4.05;;;3.60;;
10987;SDS011;5547;42.672;23.230;2023-04-24T10:45:18;4.10;;;3.50;;
10987;SDS011;5547;42.672;23.230;2023-04-24T10:48:25;6.07;;;3.88;;
10987;SDS011;5547;42.672;23.230;2023-04-24T10:51:43;4.78;;;3.90;;
10987;SDS011;5547;42.672;23.230;2023-04-24T10:54:46;4.93;;;4.03;;
10987;SDS011;5547;42.672;23.230;2023-04-24T10:58:03;4.38;;;3.60;;
10987;SDS011;5547;42.672;23.230;2023-04-24T11:01:04;4.68;;;3.90;;
10987;SDS011;5547;42.672;23.230;2023-04-24T11:04:04;5.27;;;4.13;;
10987;SDS011;5547;42.672;23.230;2023-04-24T11:07:04;5.30;;;4.37;;
10987;SDS011;5547;42.672;23.230;2023-04-24T11:10:05;5.20;;;4.20;;
10987;SDS011;5547;42.672;23.230;2023-04-24T11:13:06;7.63;;;5.63;;
10987;SDS011;5547;42.672;23.230;2023-04-24T11:16:41;4.60;;;4.20;;
10987;SDS011;5547;42.672;23.230;2023-04-24T11:19:35;6.30;;;5.13;;
10987;SDS011;5547;42.672;23.230;2023-04-24T11:22:37;6.80;;;6.10;;
10987;SDS011;5547;42.672;23.230;2023-04-24T11:25:41;7.67;;;5.37;;
10987;SDS011;5547;42.672;23.230;2023-04-24T11:28:46;4.70;;;4.10;;
10987;SDS011;5547;42.672;23.230;2023-04-24T11:31:47;5.03;;;4.53;;
10987;SDS011;5547;42.672;23.230;2023-04-24T11:34:52;7.90;;;6.00;;
10987;SDS011;5547;42.672;23.230;2023-04-24T11:37:54;7.28;;;6.45;;
10987;SDS011;5547;42.672;23.230;2023-04-24T11:40:55;10.02;;;9.02;;
10987;SDS011;5547;42.672;23.230;2023-04-24T11:43:55;9.23;;;7.40;;
10987;SDS011;5547;42.672;23.230;2023-04-24T11:46:56;8.32;;;7.50;;
10987;SDS011;5547;42.672;23.230;2023-04-24T11:49:57;7.40;;;6.70;;
10987;SDS011;5547;42.672;23.230;2023-04-24T11:52:58;7.57;;;6.80;;
10987;SDS011;5547;42.672;23.230;2023-04-24T11:56:03;6.72;;;6.10;;
10987;SDS011;5547;42.672;23.230;2023-04-24T11:59:04;6.50;;;5.80;;
10987;SDS011;5547;42.672;23.230;2023-04-24T12:02:04;6.73;;;5.70;;
10987;SDS011;5547;42.672;23.230;2023-04-24T12:05:06;5.28;;;4.47;;
10987;SDS011;5547;42.672;23.230;2023-04-24T12:08:06;5.43;;;4.40;;
10987;SDS011;5547;42.672;23.230;2023-04-24T12:11:07;5.10;;;4.60;;
10987;SDS011;5547;42.672;23.230;2023-04-24T12:14:11;5.77;;;4.87;;
10987;SDS011;5547;42.672;23.230;2023-04-24T12:17:12;6.35;;;5.28;;
10987;SDS011;5547;42.672;23.230;2023-04-24T12:20:13;5.43;;;4.90;;
10987;SDS011;5547;42.672;23.230;2023-04-24T12:23:14;4.85;;;4.43;;
10987;SDS011;5547;42.672;23.230;2023-04-24T12:26:18;6.13;;;4.88;;
10987;SDS011;5547;42.672;23.230;2023-04-24T12:29:20;5.47;;;4.70;;
10987;SDS011;5547;42.672;23.230;2023-04-24T12:32:21;5.10;;;4.67;;
10987;SDS011;5547;42.672;23.230;2023-04-24T12:35:22;5.47;;;4.65;;
10987;SDS011;5547;42.672;23.230;2023-04-24T12:38:25;5.03;;;4.60;;
10987;SDS011;5547;42.672;23.230;2023-04-24T12:41:26;5.13;;;4.63;;
10987;SDS011;5547;42.672;23.230;2023-04-24T12:44:31;5.47;;;4.97;;
10987;SDS011;5547;42.672;23.230;2023-04-24T12:47:34;5.30;;;4.80;;
10987;SDS011;5547;42.672;23.230;2023-04-24T12:50:36;4.55;;;4.15;;
10987;SDS011;5547;42.672;23.230;2023-04-24T12:53:37;4.70;;;4.20;;
10987;SDS011;5547;42.672;23.230;2023-04-24T12:56:38;5.03;;;4.27;;
10987;SDS011;5547;42.672;23.230;2023-04-24T12:59:39;5.20;;;4.70;;
10987;SDS011;5547;42.672;23.230;2023-04-24T13:02:39;4.70;;;4.20;;
10987;SDS011;5547;42.672;23.230;2023-04-24T13:05:42;5.80;;;4.80;;
10987;SDS011;5547;42.672;23.230;2023-04-24T13:08:43;5.60;;;4.50;;
10987;SDS011;5547;42.672;23.230;2023-04-24T13:11:43;4.83;;;4.40;;
10987;SDS011;5547;42.672;23.230;2023-04-24T13:14:43;4.43;;;4.03;;
10987;SDS011;5547;42.672;23.230;2023-04-24T13:17:44;5.20;;;4.10;;
10987;SDS011;5547;42.672;23.230;2023-04-24T13:20:44;4.45;;;3.95;;
10987;SDS011;5547;42.672;23.230;2023-04-24T13:23:47;5.10;;;4.20;;
10987;SDS011;5547;42.672;23.230;2023-04-24T13:26:47;5.30;;;4.30;;
10987;SDS011;5547;42.672;23.230;2023-04-24T13:29:48;5.50;;;3.77;;
10987;SDS011;5547;42.672;23.230;2023-04-24T13:32:48;4.50;;;3.70;;
10987;SDS011;5547;42.672;23.230;2023-04-24T13:35:48;4.77;;;3.70;;
10987;SDS011;5547;42.672;23.230;2023-04-24T13:38:49;5.17;;;3.73;;
10987;SDS011;5547;42.672;23.230;2023-04-24T13:41:49;4.93;;;3.90;;
10987;SDS011;5547;42.672;23.230;2023-04-24T13:44:50;4.37;;;3.90;;
10987;SDS011;5547;42.672;23.230;2023-04-24T13:47:51;5.05;;;3.78;;
10987;SDS011;5547;42.672;23.230;2023-04-24T13:50:53;5.03;;;3.80;;
10987;SDS011;5547;42.672;23.230;2023-04-24T13:53:53;4.77;;;3.93;;
10987;SDS011;5547;42.672;23.230;2023-04-24T13:56:57;4.82;;;3.83;;
10987;SDS011;5547;42.672;23.230;2023-04-24T13:59:58;4.53;;;3.80;;
10987;SDS011;5547;42.672;23.230;2023-04-24T14:03:01;4.65;;;3.78;;
10987;SDS011;5547;42.672;23.230;2023-04-24T14:06:01;4.80;;;3.80;;
10987;SDS011;5547;42.672;23.230;2023-04-24T14:09:02;4.07;;;3.50;;
10987;SDS011;5547;42.672;23.230;2023-04-24T14:12:03;4.33;;;3.57;;
10987;SDS011;5547;42.672;23.230;2023-04-24T14:15:03;5.83;;;3.50;;
10987;SDS011;5547;42.672;23.230;2023-04-24T14:18:05;5.67;;;4.00;;
10987;SDS011;5547;42.672;23.230;2023-04-24T14:21:05;4.85;;;3.35;;
10987;SDS011;5547;42.672;23.230;2023-04-24T14:24:06;4.53;;;3.55;;
10987;SDS011;5547;42.672;23.230;2023-04-24T14:27:06;4.57;;;3.17;;
10987;SDS011;5547;42.672;23.230;2023-04-24T14:30:07;5.43;;;3.60;;
10987;SDS011;5547;42.672;23.230;2023-04-24T14:33:08;4.13;;;3.50;;
10987;SDS011;5547;42.672;23.230;2023-04-24T14:36:09;4.37;;;3.67;;
10987;SDS011;5547;42.672;23.230;2023-04-24T14:39:09;4.67;;;3.47;;
10987;SDS011;5547;42.672;23.230;2023-04-24T14:42:10;5.43;;;3.30;;
10987;SDS011;5547;42.672;23.230;2023-04-24T14:45:10;4.40;;;3.40;;
10987;SDS011;5547;42.672;23.230;2023-04-24T14:48:11;4.95;;;3.53;;
10987;SDS011;5547;42.672;23.230;2023-04-24T14:51:11;6.60;;;3.90;;
10987;SDS011;5547;42.672;23.230;2023-04-24T14:54:12;4.93;;;3.45;;
10987;SDS011;5547;42.672;23.230;2023-04-24T14:57:13;3.90;;;3.25;;
10987;SDS011;5547;42.672;23.230;2023-04-24T15:00:14;4.85;;;3.40;;
10987;SDS011;5547;42.672;23.230;2023-04-24T15:03:16;5.00;;;3.77;;
10987;SDS011;5547;42.672;23.230;2023-04-24T15:06:18;6.80;;;4.10;;
10987;SDS011;5547;42.672;23.230;2023-04-24T15:09:20;5.72;;;4.30;;
10987;SDS011;5547;42.672;23.230;2023-04-24T15:12:21;5.23;;;4.13;;
10987;SDS011;5547;42.672;23.230;2023-04-24T15:15:22;4.60;;;4.05;;
10987;SDS011;5547;42.672;23.230;2023-04-24T15:18:22;13.50;;;7.75;;
10987;SDS011;5547;42.672;23.230;2023-04-24T15:21:23;9.80;;;5.95;;
10987;SDS011;5547;42.672;23.230;2023-04-24T15:24:23;5.85;;;4.60;;
10987;SDS011;5547;42.672;23.230;2023-04-24T15:27:24;4.80;;;4.03;;
10987;SDS011;5547;42.672;23.230;2023-04-24T15:30:25;5.18;;;3.70;;
10987;SDS011;5547;42.672;23.230;2023-04-24T15:33:25;4.90;;;3.90;;
10987;SDS011;5547;42.672;23.230;2023-04-24T15:36:26;6.83;;;5.27;;
10987;SDS011;5547;42.672;23.230;2023-04-24T15:39:26;7.20;;;4.40;;
10987;SDS011;5547;42.672;23.230;2023-04-24T15:42:27;7.03;;;4.30;;
10987;SDS011;5547;42.672;23.230;2023-04-24T15:45:27;6.03;;;4.40;;
10987;SDS011;5547;42.672;23.230;2023-04-24T15:48:28;6.20;;;5.53;;
10987;SDS011;5547;42.672;23.230;2023-04-24T15:51:29;6.82;;;5.43;;
10987;SDS011;5547;42.672;23.230;2023-04-24T15:54:30;8.80;;;5.30;;
10987;SDS011;5547;42.672;23.230;2023-04-24T15:57:31;8.40;;;7.47;;
10987;SDS011;5547;42.672;23.230;2023-04-24T16:00:31;8.33;;;6.60;;
10987;SDS011;5547;42.672;23.230;2023-04-24T16:03:34;6.95;;;6.22;;
10987;SDS011;5547;42.672;23.230;2023-04-24T16:06:34;10.30;;;7.10;;
10987;SDS011;5547;42.672;23.230;2023-04-24T16:09:34;8.90;;;7.40;;
10987;SDS011;5547;42.672;23.230;2023-04-24T16:12:35;8.00;;;6.97;;
10987;SDS011;5547;42.672;23.230;2023-04-24T16:15:35;13.27;;;9.77;;
10987;SDS011;5547;42.672;23.230;2023-04-24T16:18:36;12.00;;;9.17;;
10987;SDS011;5547;42.672;23.230;2023-04-24T16:21:36;11.27;;;10.00;;
10987;SDS011;5547;42.672;23.230;2023-04-24T16:24:37;13.10;;;10.87;;
10987;SDS011;5547;42.672;23.230;2023-04-24T16:27:37;13.60;;;10.85;;
10987;SDS011;5547;42.672;23.230;2023-04-24T16:30:37;17.03;;;13.07;;
10987;SDS011;5547;42.672;23.230;2023-04-24T16:33:39;13.93;;;11.95;;
10987;SDS011;5547;42.672;23.230;2023-04-24T16:36:39;18.63;;;13.77;;
10987;SDS011;5547;42.672;23.230;2023-04-24T16:39:40;18.03;;;15.40;;
10987;SDS011;5547;42.672;23.230;2023-04-24T16:42:43;17.83;;;14.82;;
10987;SDS011;5547;42.672;23.230;2023-04-24T16:45:44;21.53;;;17.80;;
10987;SDS011;5547;42.672;23.230;2023-04-24T16:48:44;17.90;;;13.70;;
10987;SDS011;5547;42.672;23.230;2023-04-24T16:51:45;16.75;;;11.80;;
10987;SDS011;5547;42.672;23.230;2023-04-24T16:54:45;13.77;;;11.90;;
10987;SDS011;5547;42.672;23.230;2023-04-24T16:57:46;12.07;;;10.77;;
10987;SDS011;5547;42.672;23.230;2023-04-24T17:00:47;13.00;;;10.98;;
10987;SDS011;5547;42.672;23.230;2023-04-24T17:03:47;19.03;;;16.30;;
10987;SDS011;5547;42.672;23.230;2023-04-24T17:06:48;13.67;;;12.27;;
10987;SDS011;5547;42.672;23.230;2023-04-24T17:09:48;13.17;;;11.43;;
10987;SDS011;5547;42.672;23.230;2023-04-24T17:12:48;21.73;;;17.60;;
10987;SDS011;5547;42.672;23.230;2023-04-24T17:15:50;17.85;;;14.00;;
10987;SDS011;5547;42.672;23.230;2023-04-24T17:18:50;15.67;;;14.00;;
10987;SDS011;5547;42.672;23.230;2023-04-24T17:21:50;16.95;;;15.10;;
10987;SDS011;5547;42.672;23.230;2023-04-24T17:24:51;18.38;;;16.38;;
10987;SDS011;5547;42.672;23.230;2023-04-24T17:27:51;25.57;;;20.57;;
10987;SDS011;5547;42.672;23.230;2023-04-24T17:30:52;27.57;;;20.20;;
10987;SDS011;5547;42.672;23.230;2023-04-24T17:33:54;25.00;;;21.08;;
10987;SDS011;5547;42.672;23.230;2023-04-24T17:36:54;21.23;;;16.77;;
10987;SDS011;5547;42.672;23.230;2023-04-24T17:39:55;20.65;;;16.67;;
10987;SDS011;5547;42.672;23.230;2023-04-24T17:42:55;23.60;;;19.02;;
10987;SDS011;5547;42.672;23.230;2023-04-24T17:45:56;27.90;;;22.97;;
10987;SDS011;5547;42.672;23.230;2023-04-24T17:48:58;21.15;;;18.08;;
10987;SDS011;5547;42.672;23.230;2023-04-24T17:51:58;18.33;;;14.80;;
10987;SDS011;5547;42.672;23.230;2023-04-24T17:54:59;20.30;;;16.87;;
10987;SDS011;5547;42.672;23.230;2023-04-24T17:58:00;12.00;;;10.45;;